Terminal Aerodrome Forecast
Issued by NWS Charleston, WV

Current Version | Previous Version | Text Only | Print | Product List | Glossary Off
Versions: 1 2 3 4 5 6 7 8 9 10 11 12 13 14 15 16 17 18 19 20 21 22 23 24 25 26 27 28 29 30 31 32 33

137
FTUS41 KRLX 180212 AAB
TAFPKB
TAF AMD
KPKB 180212Z 1802/1824 22004KT P6SM VCTS SCT040CB BKN080
     FM180300 20005KT P6SM SCT030 OVC050
      TEMPO 1803/1806 2SM TSRA OVC015CB
     FM180600 21004KT 5SM SHRA VCTS OVC035CB
     FM181000 22004KT P6SM BKN015
     FM181400 24005KT P6SM BKN250
     FM181600 24005KT P6SM SCT020
     FM182000 26006KT P6SM SCT035=

USA.gov is the U.S. government's official web portal to all federal, state and local government web resources and services.